Member area
Imprimable
Challenges > Delhalle - Jurbise, 17/09/2016, BEL - La Forestière
List of reports > Delhalle - 14.5km - Result
Search: Page: [1]
110 Entries
 
Complains are not accepted anymore. Results are final.
Category
PosNrNameAgeNATLeagueTeamRealTimeTkmMoy.PlaceNameScrPtsCity
1.5VANDROOGENBROECK VIRGINIE45BELCABWTRAINING 757:3857:383:59 15.101ai130927BRAINE L'ALLEUD
2.125VAN DER ZWALMEN SABINE36BELUSBWMYSTERE58:2758:284:02 14.881dam35910LASNE
3.17DESILLE NICOLE49BEL1:02:451:02:464:20 13.862ai163822LA HULPE
4.2642CUPERS DOROTHEE29BELENJAMBEENJAMBEE1:03:051:03:074:22 13.792dam66815
5.1386THEATE FRANCOISE53BELSPIBOSPIBO1:03:321:03:334:23 13.691ai273803
6.428DUTRANNOIT VERONIQUE45BELSPIBO1:03:481:03:494:25 13.643ai176797QUAREGNON
7.2671KAPUCZINSKI ABELINE23BELSPIBO1:05:301:05:304:32 13.283dam99755
8.907THIRY MARIE34BELRCNAMUR1:05:571:05:594:34 13.194dam104745NANINNE
9.483DE WOOT ANTOINETTE52BELESM1:06:101:06:144:35 13.142ai2106741MARCHIENNE-AU-PONT
10.789CORDIER CHRISTINE50BEL1:06:431:06:524:37 13.013ai2115726JUPRELLE
11.209DE GREVE GEERTRUI41BELETCHIEVR1:07:001:07:034:38 12.984ai1119719EREMBODEGEM
12.88LOUSBERG CARINE49BELHUYTRANSITION SP1:07:381:07:484:41 12.835ai1126705ANTHEIT
13.213BERGHEZAN MARIE-CHRISTINE52BELUSBWMYSTERE1:08:281:08:314:44 12.704ai2136686MARCHE-LEZ-ECAUSSINES
14.5490MEDAETS ALIZEE22BELCSF1:08:431:08:474:45 12.655dam138681ENGHIEN
15.859KHARROUBI AWATEF44BELJCCS1:08:541:08:584:46 12.626ai1139678GEDINNE
16.187LEGRAND SYLVIANE55BELJACO1:09:201:09:234:48 12.545ai2142670MONCEAU-IMBRECHIES
17.2751RODRIGUEZ LOLA48BEL1:09:391:09:474:49 12.477ai1149661
18.2744BOGAERT NATHALIE51BELLES AMIS JOGGEURS1:09:451:09:574:50 12.446ai2151658
19.2684CLEMENT EMELINE24BEL1:10:031:10:124:51 12.396dam154652
20.331GODFROID YAEL16BELMYSTERE1:12:441:12:565:02 11.931esf176600WATERLOO
21.140KOHL ANGELIQUE47BELHUYFOULÉES DU PLAISIR1:14:151:14:245:08 11.698ai1198564HUY
22.441KOOB MARIE-CECILE46BELVERTIGO1:14:411:14:455:10 11.649ai1203555JURBISE
23.5480VEKEMAN BERNADETTE63BEL1:15:201:15:215:12 11.551ai3210542ZOTTEGEM
24.2673ANSIAU MAGALI41BELOBJ1:15:571:16:015:15 11.4510ai1215530
25.2808VINCENT VERONIQUE39BELAC BELOEIL1:15:541:16:105:16 11.427dam217529
26.5467SENNESAEL ANNE-LAURE26BELENJAMBEE1:17:341:17:395:22 11.208dam235496KRAAINEM
27.2811CERNA PETRA41CZEENJAMBEE1:17:161:17:405:22 11.2011ai1236499
28.2743SIMON FLORENCE45BEL1:17:261:17:415:22 11.2012ai1237496
29.808CHABEAU VINCIANE55BELANTILOB1:17:411:17:515:23 11.187ai2239491COURT SAINT ETIENNE
30.5463WAUTHIER SANDRA43BELJOGGANS1:18:061:18:305:25 11.0813ai1244483SINT-PIETERS-LEEUW
31.5464OVERTUS MARIE31BEL1:18:401:18:595:27 11.029dam250471BRUXELLES
32.5468VANESCOTE INGRID44BELJCHSH1:18:491:19:005:27 11.0114ai1251469HAM-SUR-HEURE
33.967URBAIN GINETTE64FRASPIBO1:19:111:19:145:28 10.982ai3253463BELLIGNIES
34.5455JANUTH FRANCES40BELLES BOULETTES1:19:221:19:335:30 10.9415ai1258457LA LOUVIÈRE
35.457MARGUINIO DANIELLE64BEL16501:19:271:19:335:30 10.943ai3259455HEUSY
36.5466THIRION DOMINIQUE56BEL1:19:481:19:515:31 10.908ai2263448CORROY-LE-GRAND
37.2816JOURET CHARLOTTE36BEL1:20:071:20:185:33 10.8310dam270440
38.2662DEMEULENAERE SOPHIE50BELTHEODO TEMPO1:20:291:20:315:34 10.819ai2274432
39.5472LAMBRET CHRISTELLE40BELTHEODO TEMPO1:20:441:20:565:35 10.7516ai1286420GENLY
40.283POELMANS AUDREY30BELRCNAMUR1:20:471:21:035:36 10.7311dam289418PERWEZ
41.2788HARVENGT MARIE26BEL1:21:141:21:225:37 10.6912dam291411
42.2735MOUTURY CORALIE43BELBAC1:21:101:21:325:38 10.6717ai1293410
43.2807LEBAILLY EMELINE14BELAC BELOEIL1:21:501:22:075:40 10.602esf299398
44.2750MARNEFFE CATHERINE37BEL1:23:081:23:135:45 10.4613dam310375
45.2681HUBER REGINA49BELENJAMBEE1:23:091:23:205:45 10.4418ai1312373
46.2724SCAILQUIN RACHEL17BEL1:23:581:24:075:49 10.343esf319359
47.2688RENARD JACQUELINE55BELSPIBOSPIBO1:24:321:24:445:51 10.2710ai2321351
48.5452HALLOY CINDY35BELLES BOULETTES1:24:391:24:515:52 10.2514dam322349LA LOUVIÈRE
49.847ARNOULD SYLVIE40BELRCNAMUR1:24:391:24:565:52 10.2419ai1323348EVREHAILLES
50.2666WLODARCZAK KARINE48BEL1:25:051:25:155:53 10.2120ai1328340
51.629ROLAND CATHY52BELACLO1:25:011:25:205:54 10.2011ai2330339GODARVILLE
52.2647STERCKX FABIENNE48BELJCHSH1:25:251:25:365:55 10.1721ai1332333
53.115LUYCKX JOKE56BELHOOIBERGLOPERS1:25:411:26:025:56 10.1112ai2335328HAACHT
54.384SCHELDEWAERT GILBERTE60BELRUN EVERGEM1:26:051:26:085:57 10.104ai3337322SINT-AMANDSBERG
55.36MESSAOUDI NADIA29BELMYSTERE1:25:551:26:125:57 10.0915dam339322BRUXELLES
56.5492LORGE PASCALE54BELFOULÉES DU PLAISIR1:26:401:26:556:00 10.0113ai2341313HERON
57.5457DUJARDIN LAETITIA36BELRUNNINGREZ1:26:411:26:556:00 10.0116dam342312NETHEN
58.2640SPARKS MARTY60BELSPIBOSPIBO1:26:491:27:036:01 10.005ai3343310
59.729DE WINTER HILDE53BELRUNNINGREZ1:27:071:27:216:02 9.9614ai2347304ARCHENNES
60.5489REMY SAMANTHA29BELSPIBO1:27:511:27:526:04 9.9017dam353291MONS
61.76MORRIS NICOLA-ELIZABETH56BELENJAMBEE1:27:481:27:556:04 9.9015ai2354291BRUXELLES
62.2812BROHEZ FANNY35BEL1:27:591:28:236:06 9.8418dam356288
63.2733BERTIAUX ALICE34BEL1:28:581:29:096:09 9.7619dam363272
64.2810RIHACKOVA VERA41CZEENJAMBEE1:29:381:30:036:13 9.6622ai1366263
65.2803WAUTELET AMANDINE27BEL1:30:011:30:166:14 9.6420dam368257
66.222PEREIRA OLINDA44BELIRUN@WATERLOO1:30:161:30:266:15 9.6223ai1369254BRAINE-L'ALLEUD
67.5495LECHIEN BRIGITTE48BEL1:30:161:30:366:15 9.6024ai1370253LA LOUVIÈRE
68.2764CURTO ELENA46BEL1:30:211:30:406:16 9.6025ai1371251
69.2756NOEL ANNE57BEL1:30:301:30:476:16 9.5816ai2373249
70.186HILLEN HILDE48BELAVN1:30:541:31:106:18 9.5426ai1374244MEER
71.503GONSETTE MARIE-FRANCE66BELSPTWAVRE1:31:141:31:426:20 9.496ai3381235WAVRE
72.2699COTTON CAROLINE51BELVERTIGOVERTIGO1:31:501:32:076:22 9.4517ai2382228
73.2806RE MIRELLA46BELVERTIGO1:32:561:33:016:25 9.3527ai1383216
74.2727CELANT LAURENCE46BEL1:32:561:33:056:26 9.3528ai1384215
75.7HENNERESSE ISABELLE46BELJOGGANS1:32:551:33:146:26 9.3329ai1386214GEDINNE
76.271FEUILLAT GENEVIEVE64BELUSBWMYSTERE1:33:121:33:306:27 9.317ai3387211COUTURE SAINT GERMAIN
77.2739JAIVENOIS MARTINE53BEL1:33:151:33:316:27 9.3018ai2388210
78.295KUYPERS ANNECÉCILE35BELANNE-CJAMES1:33:061:33:346:28 9.3021dam389210WIERDE
79.881HOURMAN GWENDOLINE49BELENJAMBEE1:33:501:33:596:29 9.2630ai1392201TERVUREN
80.682WATTIEZ RAPHAELLE53BELOCANRCNAMUR1:34:341:34:536:33 9.1719ai2393192ANDENNE
81.5428GOOSSENS ILSE43BEL1:34:471:35:056:34 9.1531ai1394190KORTRIJK
82.2767AERTS CATHLYNE53BEL1:35:421:35:586:38 9.0720ai2400176
83.572TALLIER JEANNY62BELRCNAMUR1:35:521:36:106:38 9.058ai3402173FLAWINNE
84.5482GRANDMONT ANITA49NLDJCPMF GENAPPE1:35:541:36:176:39 9.0432ai1403172BOUSVAL
85.2706WAUTELET AURELIE37BELVERTIGO1:36:191:36:366:40 9.0122dam404167
86.2680CROONENBORGHS ANNICK52BELJCPMF GJCPMF GENAPPE1:36:251:36:496:41 8.9921ai2405165
87.5448WELSCHEN ANNE52BEL1:36:331:36:506:41 8.9922ai2406163JURBISE
88.2778DEGAVRE CAROLINE41BEL1:36:331:36:506:41 8.9933ai1407162
89.2825NANDRIN EMILIE38BEL1:36:261:37:006:42 8.9723dam408163
90.2664VAN WYMERSCH SABINE50BELCSFMYSTERE1:37:051:37:246:44 8.9323ai2410155DROGENBOS
91.2819MODRIAN NANCY32BEL1:37:111:37:386:44 8.9124dam411153
92.2827WILLEKENS MIREILLE36BEL1:37:561:37:566:46 8.8825dam413145
93.2777TAVERNE VERONIQUE50BELENJAMBEE1:38:321:38:426:49 8.8224ai2415138
94.2737DASSONVILLE MICHELE60BELTHEODO TEMPO1:38:331:39:056:50 8.789ai3417136
94.2722PIERART MYRIAM42BEL1:38:371:39:056:50 8.7834ai1417135
96.1391BAUDUIN AMANDINE23BEL1:39:381:40:086:55 8.6926dam422122
97.2820POULAINT CHRISTEL56BEL1:39:571:40:236:56 8.6725ai2423118
98.143LUTTE MARTINE52BELSPTWAVRE1:40:311:40:596:58 8.6226ai2425111WAVRE
99.834BOULANGER BERNADETTE62BELSPORT POUR TOUS WAVRE1:40:311:40:596:58 8.6210ai3426111RIXENSART
100.2818SERRY LAURA26BEL1:40:401:41:056:59 8.6127dam427108
101.2823WATTIER KRISTELLE25BEL1:40:411:41:056:59 8.6128dam428108
102.5433FLAMAND VALERIE52FRAAXAAXA RUNNING1:41:121:41:337:01 8.5727ai2431100WATERLOO
103.311EVRARD JOSIANNE58BELRIWA1:42:091:42:187:04 8.5128ai243291BIERGES
104.5440ROUSSEAUX AGNÈS47BEL1:47:551:48:177:29 8.0435ai144034GODINNE
105.1392DUPUIS CHLOE24BEL1:48:391:49:087:32 7.9729dam44226
106.5461REZSEK SILVIA41BEL1:49:561:50:167:37 7.8936ai144314MORLANWELZ
107.2774TAMBURO ADRIENNE62BEL1:54:001:54:267:54 7.6011ai34454
108.65SEGHERS RITA69BEL2:00:072:00:288:19 7.2212ai34472ZOTTEGEM
109.2634RIPAUD AN40BEL2:03:082:03:378:32 7.0437ai14491
DNF2824GODFROID CECILE26BELdam
DNF: did not finish; DSQ: disqualified; Speed in km/h
Page: [1]